Historyczne dane pomiarowe

Dodano dane terminowe – wersja testowa.

Dane z okresu 1951-2019

Wersja bazy: 1.34 [2019-03-16, lista zmian], aktualizacja planowana na 2019-04-15

Dane meteo z obszaru Polski uzyskane na podstawie danych udostępnionych przez Instytut Meteorologii i Gospodarki Wodnej – Państwowy Instytut Badawczy.

 

Wybierz Datę:    

       

TemperaturaWilgotnośćWiatrCiśnienieOpadyŚniegCzas trwania zjawisk
 Stacja t tx tn tng RH VA  wxwx mslp ppp RRR   cm mm wxwxwxwxwxwxwx
1975-09-11 13.7 24.1 8.0- 76.5- 3.3 3.7---- 0.0------------
1975-09-12 15.6 23.3 10.2- 88.5- 5.7 5.0---- 3.5------------
1975-09-13 12.9 17.5 9.1- 96.8- 6.7 4.3---- 7.5------------
1975-09-14 11.7 21.0 5.4- 85.3- 3.7 2.0---- 0.0------------
1975-09-15 15.8 25.3 10.3- 65.0- 3.0 4.3---- 0.0------------
1975-09-16 17.4 22.5 13.1- 71.8- 3.3 0.7---- 0.2------------
1975-09-17 16.7 24.0 10.5- 87.0- 3.3 1.3---- 0.0------------
1975-09-18 16.9 26.1 11.0- 84.8- 1.7 0.7---- 0.0------------
1975-09-19 16.9 23.7 11.8- 85.0- 1.3 0.3---- 0.0------------
1975-09-20 17.6 26.5 12.1- 78.3- 1.7 1.0---- 0.0------------
1975-09-21 17.8 24.5 12.7- 93.8- 6.7 1.0---- 0.0------------
1975-09-22 15.8 21.0 12.5- 82.0- 2.7 3.3---- 0.0------------
1975-09-23 13.8 21.9 9.0- 85.3- 2.7 2.7---- 0.0------------
1975-09-24 17.0 24.4 12.0- 81.8- 3.0 1.3---- 0.0------------
1975-09-25 17.9 25.9 6.4- 71.8- 2.3 2.0---- 0.0------------
1975-09-26 18.4 26.2 9.4- 74.0- 2.3 1.3---- 0.0------------
1975-09-27 13.2 20.5 9.9- 83.8- 3.7 7.7---- 0.1------------
1975-09-28 16.5 23.9 10.9- 80.8- 4.3 6.0---- 0.0------------
1975-09-29 13.8 19.5 7.9- 98.0- 8.0 2.7---- 2.4------------
1975-09-30 12.9 20.0 8.1- 85.8- 2.7 7.7---- 0.0------------
1975-10-01 15.0 24.5 9.1- 80.0- 2.3 3.7---- 0.0------------
1975-10-02 16.5 23.0 9.9- 84.3- 6.3 7.7---- 4.8------------
1975-10-03 14.6 19.0 9.8- 97.0- 7.3 0.0---- 0.0------------
1975-10-04 11.0 16.2 8.4- 79.0- 7.3 7.7---- 0.6------------
1975-10-05 9.0 10.7 7.4- 96.0- 8.0 9.3---- 3.7------------
1975-10-06 11.7 16.2 9.4- 94.0- 5.7 3.3---- 2.1------------
1975-10-07 9.0 11.1 6.3- 98.0- 8.0 15.0---- 4.1------------
1975-10-08 6.0 10.4 4.6- 97.8- 8.0 10.0---- 4.5------------
1975-10-09 4.5 6.6 2.5- 96.8- 8.0 8.7---- 5.3------------
1975-10-10 2.3 3.9 0.5- 95.3- 5.0 3.3---- 0.0------------
177.8 ms

 

Źródłem pochodzenia danych jest Instytut Meteorologii i Gospodarki Wodnej – Państwowy Instytut Badawczy. Dane Instytutu Meteorologii i Gospodarki Wodnej – Państwowego Instytutu Badawczego zostały przetworzone.

Dane źródłowe można odnaleźć na stronie https://dane.imgw.pl